• Join FlightAware (Why Join?)
  • Login
  • US Flag 
03:09AM EDT


 

Airport Tracker/Info


-or-


 

Live Flight TrackerFlight Track Log ✈ PDT4310 ✈ 30-Jul-2013 ✈ KMDT - KPHL

Flight Track Log - Related Links

Times and Time Zones

All times are in EDT time to prevent confusion due to time zone crossing. See the PDT4310 flight status page for this flight to view local times or setup timezone preferences in your user account.

Time Position Orientation Groundspeed Altitude Reporting Facility
EDT Latitude Longitude Course Direction KTS MPH feet Rate Location/Type
07:50AM 40.1579 -76.5900 114° Southeast  Level Estimated
07:51AM 40.1461 -76.5325 99° East  Level Estimated
07:52AM 40.1392 -76.4736 99° East  Level FlightAware Approximate
07:53AM 40.1323 -76.4148 99° East  Level FlightAware Approximate
07:54AM 40.1253 -76.3559 99° East  Level FlightAware Approximate
07:55AM 40.1183 -76.2971 99° East  Level FlightAware Approximate
07:56AM 40.1053 -76.2401 98° East  Level Estimated
07:57AM 40.1024 -76.1807 94° East  Level FlightAware Approximate
07:58AM 40.0887 -76.1240 96° East  Level Estimated
07:58AM 40.1333 -76.0167 118° Southeast 249 287 5,000  Level Philadelphia TRACON
07:58AM 40.1167 -75.9500 108° East 246 283 5,000  Level Philadelphia TRACON
07:59AM 40.0864 -76.0395 92° East  Level FlightAware Approximate
07:59AM 40.1000 -75.8667 105° East 247 284 5,000  Level Philadelphia TRACON
08:00AM 40.0840 -75.9550 92° East  Level FlightAware Approximate
08:00AM 40.0833 -75.7667 102° East 246 283 5,000  Level Philadelphia TRACON
08:01AM 40.0608 -75.8761 96° East  Level Estimated
08:01AM 40.0833 -75.6833 90° East 243 280 4,900  Level Philadelphia TRACON
08:02AM 40.0637 -75.8063 87° East  Level FlightAware Approximate
08:02AM 40.0833 -75.5833 90° East 243 280 5,000  Level Philadelphia TRACON
08:03AM 40.0423 -75.7424 118° Southeast  Level Estimated
08:03AM 40.1000 -75.5167 72° East 243 280 4,500  Level Philadelphia TRACON
08:04AM 40.1500 -75.4500 46° Northeast 248 285 3,900 -300 Descending Philadelphia TRACON
08:05AM 40.1833 -75.3833 57° Northeast 233 268 3,900  Level Philadelphia TRACON
08:06AM 40.2167 -75.3000 62° Northeast 242 278 3,900  Level Philadelphia TRACON
08:07AM 40.1500 -75.2500 150° Southeast 233 268 3,900  Level Philadelphia TRACON
08:08AM 40.1000 -75.2167 153° Southeast 231 266 3,900  Level Philadelphia TRACON
08:10AM 40.0333 -75.1833 159° South 228 262 4,000  Climbing Philadelphia TRACON
08:11AM 39.9667 -75.1500 159° South 227 261 4,000  Level Philadelphia TRACON
08:12AM 39.9000 -75.1500 180° South 227 261 4,000 -600 Level Philadelphia TRACON
08:13AM 39.8500 -75.1333 166° South 220 253 2,900 -1,020 Descending Philadelphia TRACON
08:14AM 39.8167 -75.1833 229° Southwest 193 222 2,000 -1,020 Descending Philadelphia TRACON
08:15AM 39.8500 -75.2167 322° Northwest 115 132 900 -1,140 Descending Philadelphia TRACON